Time;durP1;ratioP1;P1;durP2;ratioP2;P2;SDS_P1;SDS_P2;PMS_P1;PMS_P2;Temp;Humidity;BMP_temperature;BMP_pressure;BME280_temperature;BME280_humidity;BME280_pressure;Samples;Min_cycle;Max_cycle;Signal;HPM_P1;HPM_P2
2022/10/29 00:01:48;;;;;;;15.75;6.38;;;17.30;99.90;;;;;;5051440;28;20033;-48
2022/10/29 00:04:13;;;;;;;18.23;6.28;;;17.30;99.90;;;;;;5051224;28;20029;-48
2022/10/29 00:06:39;;;;;;;15.02;6.15;;;17.40;99.90;;;;;;5051066;28;20036;-51
2022/10/29 00:09:05;;;;;;;14.57;5.80;;;17.30;99.90;;;;;;5050816;28;20377;-48
2022/10/29 00:11:30;;;;;;;18.40;6.38;;;17.30;99.90;;;;;;5051458;28;20441;-51
2022/10/29 00:13:58;;;;;;;22.23;6.25;;;17.30;99.90;;;;;;5051201;28;20032;-47
2022/10/29 00:16:29;;;;;;;21.08;6.82;;;17.40;99.90;;;;;;5051356;28;20072;-48
2022/10/29 00:18:55;;;;;;;13.98;6.13;;;17.40;99.90;;;;;;5050881;28;20116;-47
2022/10/29 00:21:24;;;;;;;17.65;6.88;;;17.30;99.90;;;;;;5050763;28;20028;-48
2022/10/29 00:23:49;;;;;;;16.98;5.55;;;17.30;99.90;;;;;;5050289;28;20131;-50
2022/10/29 00:26:18;;;;;;;17.13;6.88;;;17.30;99.90;;;;;;5050753;28;20049;-47
2022/10/29 00:28:43;;;;;;;19.33;6.97;;;17.30;99.90;;;;;;5051437;28;20061;-48
2022/10/29 00:31:13;;;;;;;18.08;5.82;;;17.20;99.90;;;;;;5054205;28;20452;-47
2022/10/29 00:33:38;;;;;;;12.40;6.15;;;17.20;99.90;;;;;;5053953;28;20021;-50
2022/10/29 00:36:08;;;;;;;22.40;6.53;;;17.10;99.90;;;;;;5053693;28;20031;-50
2022/10/29 00:38:34;;;;;;;22.10;6.20;;;17.10;99.90;;;;;;5053916;28;20071;-47
2022/10/29 00:41:00;;;;;;;15.77;6.25;;;17.00;99.90;;;;;;5054038;28;20465;-46
2022/10/29 00:43:26;;;;;;;18.30;6.53;;;17.00;99.90;;;;;;5053830;28;20029;-46
2022/10/29 00:45:58;;;;;;;18.52;7.22;;;16.90;99.90;;;;;;5053968;28;20127;-46
2022/10/29 00:48:27;;;;;;;15.32;6.53;;;16.90;99.90;;;;;;5053841;28;20059;-48
2022/10/29 00:50:53;;;;;;;14.55;5.78;;;16.80;99.90;;;;;;5053682;28;20021;-48
2022/10/29 00:53:24;;;;;;;16.63;6.30;;;16.80;99.90;;;;;;5053715;28;20031;-51
2022/10/29 00:55:50;;;;;;;11.57;5.30;;;16.70;99.90;;;;;;5053818;28;20049;-47
2022/10/29 00:58:16;;;;;;;17.38;6.55;;;16.70;99.90;;;;;;5052431;28;20104;-48
2022/10/29 01:00:42;;;;;;;17.63;6.68;;;16.60;99.90;;;;;;5053776;28;20117;-50
2022/10/29 01:03:08;;;;;;;20.60;6.28;;;16.60;99.90;;;;;;5053462;28;20052;-47
2022/10/29 01:05:35;;;;;;;20.08;7.15;;;16.50;99.90;;;;;;5053997;28;20531;-46
2022/10/29 01:08:01;;;;;;;17.15;6.88;;;16.50;99.90;;;;;;5053597;28;20025;-48
2022/10/29 01:10:53;;;;;;;19.02;7.30;;;16.40;99.90;;;;;;5053443;28;20534;-47
2022/10/29 01:13:27;;;;;;;16.33;6.80;;;16.30;99.90;;;;;;5053211;28;20032;-49
2022/10/29 01:16:05;;;;;;;21.83;7.70;;;16.20;99.90;;;;;;5053472;28;20021;-50
2022/10/29 01:18:47;;;;;;;18.80;7.13;;;16.10;99.90;;;;;;5053254;28;20032;-46
2022/10/29 01:22:03;;;;;;;25.88;6.85;;;16.00;99.90;;;;;;5053302;28;20360;-46
2022/10/29 01:24:54;;;;;;;22.02;6.72;;;16.00;99.90;;;;;;5031690;28;20128;-46
2022/10/29 01:27:47;;;;;;;19.85;7.70;;;16.00;99.90;;;;;;5054889;28;20506;-49
2022/10/29 01:30:34;;;;;;;15.35;6.47;;;15.90;99.90;;;;;;5053261;28;20151;-46
2022/10/29 01:33:06;;;;;;;14.25;5.90;;;15.70;99.90;;;;;;5051848;28;20053;-46
2022/10/29 01:35:57;;;;;;;17.02;6.90;;;15.60;99.90;;;;;;5053105;28;20024;-49
2022/10/29 01:38:33;;;;;;;24.20;6.80;;;15.50;99.90;;;;;;5053021;28;20025;-50
2022/10/29 01:40:59;;;;;;;25.73;6.65;;;15.40;99.90;;;;;;5053102;28;20021;-44
2022/10/29 01:43:47;;;;;;;12.00;7.18;;;15.40;99.90;;;;;;5054069;28;20364;-48
2022/10/29 01:46:29;;;;;;;15.95;7.53;;;15.30;99.90;;;;;;5053792;28;20029;-47
2022/10/29 01:49:00;;;;;;;14.15;5.70;;;15.30;99.90;;;;;;5053890;28;20067;-47
2022/10/29 01:51:29;;;;;;;16.45;6.38;;;15.30;99.90;;;;;;5051468;28;20032;-49
2022/10/29 01:53:55;;;;;;;21.88;8.70;;;15.20;99.90;;;;;;5052560;28;20033;-46
2022/10/29 01:56:21;;;;;;;16.70;6.60;;;15.20;99.90;;;;;;5052769;28;20519;-46
2022/10/29 01:58:51;;;;;;;21.20;6.97;;;15.20;99.90;;;;;;5052508;28;20037;-47
2022/10/29 02:01:40;;;;;;;11.32;6.00;;;15.20;99.90;;;;;;5052876;28;20454;-46
2022/10/29 02:04:33;;;;;;;13.90;7.25;;;15.20;99.90;;;;;;5052425;28;20052;-47
2022/10/29 02:07:16;;;;;;;16.55;5.90;;;15.10;99.90;;;;;;5052307;28;20090;-47
2022/10/29 02:10:07;;;;;;;13.02;6.10;;;15.10;99.90;;;;;;5052738;28;20396;-46
2022/10/29 02:12:43;;;;;;;15.55;6.43;;;15.10;99.90;;;;;;5052000;28;20040;-47
2022/10/29 02:15:16;;;;;;;16.00;5.40;;;15.10;99.90;;;;;;5052390;28;20033;-46
2022/10/29 02:17:43;;;;;;;25.35;5.78;;;15.10;99.90;;;;;;5052016;28;20016;-46
2022/10/29 02:20:11;;;;;;;16.17;5.50;;;15.10;99.90;;;;;;5052342;28;20447;-47
2022/10/29 02:22:37;;;;;;;12.30;5.70;;;15.00;99.90;;;;;;5050591;28;20028;-46
2022/10/29 02:25:04;;;;;;;15.13;6.32;;;15.00;99.90;;;;;;5052185;28;20116;-45
2022/10/29 02:27:30;;;;;;;16.33;6.90;;;14.90;99.90;;;;;;5051983;28;20021;-49
2022/10/29 02:29:55;;;;;;;17.27;6.28;;;14.90;99.90;;;;;;5052010;28;20028;-47
2022/10/29 02:32:21;;;;;;;14.60;5.65;;;14.80;99.90;;;;;;5051669;28;20124;-47
2022/10/29 02:34:46;;;;;;;15.38;6.25;;;14.70;99.90;;;;;;5051644;28;20504;-48
2022/10/29 02:37:12;;;;;;;19.50;7.38;;;14.70;99.90;;;;;;5051599;28;20466;-46
2022/10/29 02:39:37;;;;;;;11.25;6.03;;;14.60;99.90;;;;;;5051986;28;20055;-48
2022/10/29 02:42:03;;;;;;;15.43;5.38;;;14.60;99.90;;;;;;5051530;28;20422;-49
2022/10/29 02:44:28;;;;;;;19.73;6.60;;;14.60;99.90;;;;;;5052206;28;20065;-47
2022/10/29 02:46:54;;;;;;;16.13;6.47;;;14.60;99.90;;;;;;5051685;28;20032;-47
2022/10/29 02:49:19;;;;;;;18.10;6.82;;;14.60;99.90;;;;;;5051684;28;20036;-46
2022/10/29 02:51:45;;;;;;;19.50;6.63;;;14.60;99.90;;;;;;5051425;28;20421;-46
2022/10/29 02:54:11;;;;;;;16.95;7.80;;;14.70;99.90;;;;;;5051613;28;20036;-47
2022/10/29 02:56:36;;;;;;;12.95;6.68;;;14.70;99.90;;;;;;5050292;28;20025;-50
2022/10/29 02:59:02;;;;;;;12.90;6.57;;;14.70;99.90;;;;;;5051485;28;20028;-47
2022/10/29 03:01:27;;;;;;;15.10;7.15;;;14.80;99.90;;;;;;5051621;28;20025;-50
2022/10/29 03:03:53;;;;;;;16.42;6.28;;;14.80;99.90;;;;;;5051581;28;20044;-48
2022/10/29 03:06:19;;;;;;;18.25;6.45;;;14.80;99.90;;;;;;5051531;28;20029;-46
2022/10/29 03:08:45;;;;;;;12.75;6.53;;;14.80;99.90;;;;;;5051392;28;20031;-49
2022/10/29 03:11:11;;;;;;;18.50;7.78;;;14.90;99.90;;;;;;5052011;28;20029;-46
2022/10/29 03:13:36;;;;;;;14.52;6.63;;;14.80;99.90;;;;;;5051299;28;20020;-46
2022/10/29 03:16:02;;;;;;;19.55;7.90;;;14.80;99.90;;;;;;5051564;28;20067;-46
2022/10/29 03:18:27;;;;;;;23.88;8.20;;;14.80;99.90;;;;;;5051350;28;20029;-49
2022/10/29 03:20:53;;;;;;;24.50;10.02;;;14.80;99.90;;;;;;5052095;28;20064;-47
2022/10/29 03:23:19;;;;;;;17.05;6.97;;;14.80;99.90;;;;;;5051233;28;20028;-47
2022/10/29 03:25:52;;;;;;;19.35;7.00;;;14.80;99.90;;;;;;5050254;28;20025;-46
2022/10/29 03:28:19;;;;;;;20.70;7.32;;;14.80;99.90;;;;;;5051246;28;20096;-47
2022/10/29 03:30:45;;;;;;;13.50;6.25;;;14.70;99.90;;;;;;5051456;28;20143;-46
2022/10/29 03:33:10;;;;;;;12.77;6.88;;;14.70;99.90;;;;;;5051123;28;20484;-47
2022/10/29 03:35:36;;;;;;;11.65;6.40;;;14.70;99.90;;;;;;5051317;28;20107;-46
2022/10/29 03:38:01;;;;;;;23.45;8.05;;;14.60;99.90;;;;;;5064033;23;20108;-46
2022/10/29 03:40:27;;;;;;;22.80;7.22;;;14.60;99.90;;;;;;5047849;28;20037;-47
2022/10/29 03:42:52;;;;;;;13.65;6.82;;;14.50;99.90;;;;;;5050882;28;20033;-45
2022/10/29 03:45:18;;;;;;;16.50;7.65;;;14.50;99.90;;;;;;5049955;28;20032;-46
2022/10/29 03:47:43;;;;;;;20.20;7.57;;;14.50;99.90;;;;;;5052247;28;20039;-46
2022/10/29 03:50:09;;;;;;;14.23;7.57;;;14.50;99.90;;;;;;5071075;28;20039;-45
2022/10/29 03:52:35;;;;;;;18.25;8.00;;;14.50;99.90;;;;;;5069512;28;20120;-45
2022/10/29 03:55:01;;;;;;;19.02;7.95;;;14.50;99.90;;;;;;5071044;28;20095;-47
2022/10/29 03:57:27;;;;;;;17.13;8.68;;;14.40;99.90;;;;;;5069627;28;20023;-46
2022/10/29 03:59:52;;;;;;;23.95;7.90;;;14.50;99.90;;;;;;5071132;28;20454;-49
2022/10/29 04:02:18;;;;;;;15.43;7.13;;;14.50;99.90;;;;;;5070659;28;20488;-51
2022/10/29 04:04:43;;;;;;;21.40;8.68;;;14.60;99.90;;;;;;5073489;28;20024;-45
2022/10/29 04:07:10;;;;;;;19.00;6.75;;;14.50;99.90;;;;;;5074565;28;20025;-45
2022/10/29 04:09:35;;;;;;;21.38;7.32;;;14.50;99.90;;;;;;5074518;28;20601;-50
2022/10/29 04:12:02;;;;;;;14.60;5.88;;;14.50;99.90;;;;;;5074570;28;20020;-46
2022/10/29 04:14:28;;;;;;;9.93;6.10;;;14.40;99.90;;;;;;5074806;28;20024;-47
2022/10/29 04:16:53;;;;;;;19.77;6.38;;;14.40;99.90;;;;;;5073266;28;20021;-47
2022/10/29 04:19:18;;;;;;;21.17;6.30;;;14.40;99.90;;;;;;5074430;28;20453;-50
2022/10/29 04:21:44;;;;;;;19.25;6.25;;;14.30;99.90;;;;;;5073133;28;20027;-51
2022/10/29 04:24:10;;;;;;;10.25;5.65;;;14.30;99.90;;;;;;5072846;28;20036;-49
2022/10/29 04:26:35;;;;;;;17.63;6.68;;;14.30;99.90;;;;;;5073344;28;20040;-48
2022/10/29 04:29:01;;;;;;;21.38;8.88;;;14.30;99.90;;;;;;5074298;28;20050;-46
2022/10/29 04:31:26;;;;;;;24.67;7.93;;;14.30;99.90;;;;;;5073382;28;20016;-46
2022/10/29 04:33:52;;;;;;;23.02;8.85;;;14.40;99.90;;;;;;5072273;28;20032;-45
2022/10/29 04:36:18;;;;;;;18.60;7.78;;;14.50;99.90;;;;;;5074410;28;20020;-46
2022/10/29 04:38:43;;;;;;;26.88;9.70;;;14.50;99.90;;;;;;5073864;28;20115;-45
2022/10/29 04:41:09;;;;;;;14.60;8.20;;;14.40;99.90;;;;;;5072941;28;20024;-47
2022/10/29 04:43:34;;;;;;;26.35;7.53;;;14.50;99.90;;;;;;5072563;28;20020;-47
2022/10/29 04:46:00;;;;;;;24.90;8.75;;;14.40;99.90;;;;;;5072988;28;20021;-45
2022/10/29 04:48:27;;;;;;;26.55;8.88;;;14.40;99.90;;;;;;5073679;28;20099;-47
2022/10/29 04:50:52;;;;;;;20.77;8.05;;;14.40;99.90;;;;;;5074103;28;20103;-52
2022/10/29 04:53:19;;;;;;;21.63;8.00;;;14.60;99.90;;;;;;5073823;28;20562;-48
2022/10/29 04:55:44;;;;;;;21.33;7.78;;;14.50;99.90;;;;;;5074373;28;20093;-47
2022/10/29 04:58:15;;;;;;;20.20;7.90;;;14.50;99.90;;;;;;5073713;28;20470;-49
2022/10/29 05:00:41;;;;;;;19.90;7.13;;;14.50;99.90;;;;;;5073946;28;20510;-49
2022/10/29 05:03:07;;;;;;;15.73;8.57;;;14.50;99.90;;;;;;5073294;28;20028;-49
2022/10/29 05:05:33;;;;;;;17.98;8.32;;;14.50;99.90;;;;;;5073789;28;20031;-44
2022/10/29 05:07:59;;;;;;;14.52;6.60;;;14.50;99.90;;;;;;5073522;28;20035;-46
2022/10/29 05:10:27;;;;;;;15.43;6.93;;;14.60;99.90;;;;;;5073667;28;20040;-45
2022/10/29 05:12:57;;;;;;;17.50;6.97;;;14.60;99.90;;;;;;5072008;28;20021;-46
2022/10/29 05:15:23;;;;;;;17.10;6.85;;;14.60;99.90;;;;;;5073316;28;20025;-46
2022/10/29 05:17:48;;;;;;;28.02;9.23;;;14.60;99.90;;;;;;5073263;28;20031;-46
2022/10/29 05:20:14;;;;;;;16.70;7.32;;;14.60;99.90;;;;;;5072371;28;20565;-47
2022/10/29 05:22:39;;;;;;;21.27;7.32;;;14.70;99.90;;;;;;5073160;28;20063;-48
2022/10/29 05:25:05;;;;;;;16.63;6.93;;;14.70;99.90;;;;;;5073525;28;20056;-47
2022/10/29 05:27:31;;;;;;;23.02;7.03;;;14.70;99.90;;;;;;5073440;28;20032;-47
2022/10/29 05:29:56;;;;;;;18.95;6.65;;;14.60;99.90;;;;;;5073150;28;20031;-47
2022/10/29 05:32:22;;;;;;;22.20;7.60;;;14.60;99.90;;;;;;5073201;28;20169;-48
2022/10/29 05:34:47;;;;;;;13.63;6.50;;;14.60;99.90;;;;;;5072703;28;20025;-46
2022/10/29 05:37:13;;;;;;;13.65;6.00;;;14.60;99.90;;;;;;5073382;28;20024;-48
2022/10/29 05:39:38;;;;;;;28.05;7.45;;;14.60;99.90;;;;;;5072988;28;20105;-48
2022/10/29 05:42:04;;;;;;;12.00;6.68;;;14.60;99.90;;;;;;5072868;28;20039;-49
2022/10/29 05:44:30;;;;;;;17.98;8.07;;;14.60;99.90;;;;;;5072986;28;20039;-50
2022/10/29 05:46:55;;;;;;;15.27;6.60;;;14.60;99.90;;;;;;5073039;28;20392;-50
2022/10/29 05:49:21;;;;;;;14.10;6.72;;;14.60;99.90;;;;;;5072880;28;20071;-51
2022/10/29 05:51:46;;;;;;;20.23;6.40;;;14.60;99.90;;;;;;5072884;28;20085;-48
2022/10/29 05:54:12;;;;;;;20.80;6.90;;;14.70;99.90;;;;;;5071522;28;20543;-46
2022/10/29 05:56:37;;;;;;;17.98;5.53;;;14.60;99.90;;;;;;5072959;28;20033;-50
2022/10/29 05:59:03;;;;;;;23.05;7.03;;;14.60;99.90;;;;;;5072591;28;20021;-48
2022/10/29 06:01:28;;;;;;;15.95;6.55;;;14.70;99.90;;;;;;5072811;28;20111;-48
2022/10/29 06:03:54;;;;;;;14.35;7.18;;;14.70;99.90;;;;;;5072642;28;20025;-50
2022/10/29 06:06:19;;;;;;;12.60;7.30;;;14.70;99.90;;;;;;5072629;28;20055;-51
2022/10/29 06:08:45;;;;;;;30.95;8.13;;;14.70;99.90;;;;;;5072470;28;20033;-51
2022/10/29 06:11:10;;;;;;;14.70;7.47;;;14.70;99.90;;;;;;5072531;28;20020;-50
2022/10/29 06:13:36;;;;;;;20.98;7.97;;;14.70;99.90;;;;;;5071972;28;20430;-47
2022/10/29 06:16:01;;;;;;;19.90;7.75;;;14.70;99.90;;;;;;5072387;28;20028;-49
2022/10/29 06:18:28;;;;;;;16.23;7.18;;;14.70;99.90;;;;;;5072178;28;20025;-49
2022/10/29 06:20:56;;;;;;;18.85;9.05;;;14.80;99.90;;;;;;5072291;28;20078;-48
2022/10/29 06:23:22;;;;;;;17.83;7.68;;;14.80;99.90;;;;;;5072559;28;20025;-49
2022/10/29 06:25:47;;;;;;;22.73;9.80;;;14.80;99.90;;;;;;5071990;28;20511;-48
2022/10/29 06:28:17;;;;;;;23.60;7.20;;;14.80;99.90;;;;;;5070523;28;20017;-49
2022/10/29 06:30:48;;;;;;;22.00;7.22;;;14.80;99.90;;;;;;5072052;28;20052;-51
2022/10/29 06:33:14;;;;;;;15.82;7.22;;;14.80;99.90;;;;;;5071905;28;20055;-52
2022/10/29 06:35:39;;;;;;;17.58;7.55;;;14.80;99.90;;;;;;5071948;28;20029;-51
2022/10/29 06:38:05;;;;;;;14.52;7.07;;;14.80;99.90;;;;;;5071788;28;20044;-48
2022/10/29 06:40:30;;;;;;;14.82;7.35;;;14.80;99.90;;;;;;5072033;28;20029;-49
2022/10/29 06:43:05;;;;;;;13.85;6.78;;;14.70;99.90;;;;;;5075513;28;20051;-51
2022/10/29 06:45:31;;;;;;;13.48;7.18;;;14.70;99.90;;;;;;5073972;28;20024;-47
2022/10/29 06:47:57;;;;;;;23.42;7.20;;;14.70;99.90;;;;;;5072913;28;20381;-47
2022/10/29 06:50:22;;;;;;;16.60;8.07;;;14.70;99.90;;;;;;5072401;28;20028;-52
2022/10/29 06:53:02;;;;;;;15.85;6.85;;;14.70;99.90;;;;;;5071803;28;20028;-47
2022/10/29 06:55:28;;;;;;;13.70;7.25;;;14.80;99.90;;;;;;5071951;28;20028;-47
2022/10/29 06:57:59;;;;;;;16.98;6.78;;;14.80;99.90;;;;;;5073087;28;20017;-51
2022/10/29 07:00:26;;;;;;;15.23;6.40;;;14.80;99.90;;;;;;5072850;28;20104;-51
2022/10/29 07:02:51;;;;;;;19.70;7.35;;;14.90;99.90;;;;;;5071613;28;20078;-47
2022/10/29 07:05:17;;;;;;;16.23;7.18;;;14.90;99.90;;;;;;5067367;28;20479;-49
2022/10/29 07:07:42;;;;;;;12.85;5.88;;;14.90;99.90;;;;;;5071861;28;20028;-48
2022/10/29 07:10:08;;;;;;;20.63;6.72;;;14.90;99.90;;;;;;5072290;28;20050;-48
2022/10/29 07:12:41;;;;;;;20.20;6.43;;;14.90;99.90;;;;;;5071242;28;20154;-47
2022/10/29 07:15:09;;;;;;;18.10;6.85;;;14.90;99.90;;;;;;5073313;28;20069;-47
2022/10/29 07:17:34;;;;;;;28.80;7.05;;;14.90;99.90;;;;;;5072623;28;20028;-48
2022/10/29 07:20:00;;;;;;;17.55;6.88;;;14.90;99.90;;;;;;5071655;28;20415;-48
2022/10/29 07:22:26;;;;;;;10.60;6.68;;;14.90;99.90;;;;;;5062424;28;20033;-53
2022/10/29 07:24:51;;;;;;;16.02;6.65;;;14.80;99.90;;;;;;5063862;28;20041;-48
2022/10/29 07:27:17;;;;;;;20.75;7.25;;;14.80;99.90;;;;;;5071709;28;20028;-47
2022/10/29 07:29:42;;;;;;;11.75;7.18;;;14.80;99.90;;;;;;5071489;28;20056;-50
2022/10/29 07:32:08;;;;;;;17.20;6.88;;;14.90;99.90;;;;;;5071201;28;20035;-46
2022/10/29 07:34:33;;;;;;;19.23;7.20;;;14.90;99.90;;;;;;5071499;28;20029;-47
2022/10/29 07:36:59;;;;;;;27.90;9.70;;;14.90;99.90;;;;;;5071535;28;20066;-46
2022/10/29 07:39:24;;;;;;;24.70;8.30;;;14.90;99.90;;;;;;5074106;28;20506;-51
2022/10/29 07:41:50;;;;;;;19.58;8.27;;;14.90;99.90;;;;;;5074561;28;20029;-45
2022/10/29 07:44:15;;;;;;;19.95;7.63;;;14.90;99.90;;;;;;5075478;28;20107;-46
2022/10/29 07:46:41;;;;;;;22.98;8.60;;;15.00;99.90;;;;;;5075330;28;20571;-47
2022/10/29 07:49:06;;;;;;;23.67;8.02;;;15.00;99.90;;;;;;5056668;28;20029;-48
2022/10/29 07:51:32;;;;;;;13.10;7.22;;;15.10;99.90;;;;;;5054989;28;20029;-45
2022/10/29 07:53:57;;;;;;;15.70;7.65;;;15.10;99.90;;;;;;5054952;28;20104;-47
2022/10/29 07:56:23;;;;;;;13.88;7.13;;;15.10;99.90;;;;;;5055535;28;20480;-45
2022/10/29 07:58:48;;;;;;;18.10;7.85;;;15.10;99.90;;;;;;5069417;28;20024;-48
2022/10/29 08:01:14;;;;;;;16.77;7.43;;;15.20;99.90;;;;;;5056956;28;20036;-48
2022/10/29 08:03:39;;;;;;;17.02;7.28;;;15.20;99.90;;;;;;5059489;28;20025;-43
2022/10/29 08:06:05;;;;;;;18.65;7.10;;;15.30;99.90;;;;;;5075059;28;20032;-50
2022/10/29 08:08:33;;;;;;;16.58;7.22;;;15.40;99.90;;;;;;5075211;28;20028;-50
2022/10/29 08:11:00;;;;;;;21.42;8.57;;;15.40;99.90;;;;;;5074980;28;20499;-49
2022/10/29 08:13:26;;;;;;;17.83;9.50;;;15.40;99.90;;;;;;5074761;28;20021;-50
2022/10/29 08:15:52;;;;;;;20.65;9.77;;;15.50;99.90;;;;;;5075007;28;20020;-49
2022/10/29 08:18:17;;;;;;;18.90;7.55;;;15.60;99.90;;;;;;5073373;28;20024;-49
2022/10/29 08:20:43;;;;;;;27.13;8.45;;;15.50;99.90;;;;;;5074560;28;20165;-48
2022/10/29 08:23:09;;;;;;;17.42;7.35;;;15.50;99.90;;;;;;5074421;28;20052;-50
2022/10/29 08:25:40;;;;;;;17.40;9.50;;;15.50;99.90;;;;;;5073290;28;20418;-49
2022/10/29 08:28:06;;;;;;;22.63;9.48;;;15.50;99.90;;;;;;5074752;28;20020;-51
2022/10/29 08:30:32;;;;;;;19.35;10.23;;;15.60;99.90;;;;;;5074534;28;20439;-47
2022/10/29 08:32:57;;;;;;;25.08;9.85;;;15.60;99.90;;;;;;5074322;28;20074;-52
2022/10/29 08:35:23;;;;;;;20.50;9.30;;;15.70;99.90;;;;;;5074716;28;20473;-52
2022/10/29 08:37:48;;;;;;;21.55;9.63;;;15.70;99.90;;;;;;5072944;28;20093;-48
2022/10/29 08:40:30;;;;;;;24.42;8.82;;;15.80;99.90;;;;;;5075079;28;20395;-56
2022/10/29 08:43:23;;;;;;;16.23;7.95;;;16.00;99.90;;;;;;5073350;28;20111;-49
2022/10/29 08:45:51;;;;;;;20.02;7.57;;;16.00;99.90;;;;;;5074625;28;20024;-46
2022/10/29 08:48:32;;;;;;;18.13;8.65;;;16.10;99.90;;;;;;5074286;28;20442;-50
2022/10/29 08:51:05;;;;;;;17.48;7.32;;;16.20;99.90;;;;;;5073534;28;20024;-49
2022/10/29 08:53:39;;;;;;;26.58;8.95;;;16.20;99.90;;;;;;5059736;28;20021;-49
2022/10/29 08:56:10;;;;;;;15.98;7.70;;;16.30;99.90;;;;;;5053998;28;20017;-48
2022/10/29 08:58:54;;;;;;;20.15;8.52;;;16.30;99.90;;;;;;5053730;28;20029;-49
2022/10/29 09:01:21;;;;;;;23.88;8.40;;;16.30;99.90;;;;;;5053811;28;20013;-47
2022/10/29 09:03:49;;;;;;;27.67;8.80;;;16.30;99.90;;;;;;5053106;28;20029;-50
2022/10/29 09:06:44;;;;;;;17.40;7.60;;;16.30;99.90;;;;;;5053704;28;20029;-50
2022/10/29 09:09:30;;;;;;;18.48;8.30;;;16.40;99.90;;;;;;5042774;28;20395;-48
2022/10/29 09:12:06;;;;;;;19.45;8.00;;;16.40;99.90;;;;;;5054453;28;20063;-47
2022/10/29 09:14:57;;;;;;;19.58;7.90;;;16.40;99.90;;;;;;5064568;28;20021;-49
2022/10/29 09:17:30;;;;;;;17.63;8.68;;;16.40;99.90;;;;;;5054300;28;20025;-50
2022/10/29 09:20:01;;;;;;;31.90;8.50;;;16.40;99.90;;;;;;5073884;28;20036;-51
2022/10/29 09:22:51;;;;;;;11.15;6.78;;;16.40;99.90;;;;;;5073185;28;20032;-47
2022/10/29 09:25:28;;;;;;;19.92;10.88;;;16.40;99.90;;;;;;5042187;28;20036;-43
2022/10/29 09:28:32;;;;;;;78.00;45.17;;;16.50;99.90;;;;;;5073008;28;20025;-47
2022/10/29 09:31:38;;;;;;;17.33;10.15;;;16.50;99.90;;;;;;5064114;28;20112;-44
2022/10/29 09:34:16;;;;;;;19.77;8.45;;;16.70;99.90;;;;;;5030702;28;20026;-42
2022/10/29 09:36:43;;;;;;;19.23;8.10;;;16.70;99.90;;;;;;5069387;28;20036;-43
2022/10/29 09:39:13;;;;;;;17.73;8.00;;;16.80;99.90;;;;;;5071285;28;20035;-46
2022/10/29 09:41:39;;;;;;;14.73;8.35;;;16.80;99.90;;;;;;5072263;28;20025;-47
2022/10/29 09:44:37;;;;;;;14.40;7.35;;;16.80;99.90;;;;;;5061872;28;20479;-49
2022/10/29 09:47:20;;;;;;;13.95;7.20;;;16.90;99.90;;;;;;5053866;28;20024;-49
2022/10/29 09:49:58;;;;;;;19.05;7.43;;;16.90;99.90;;;;;;5077825;23;20441;-48
2022/10/29 09:52:29;;;;;;;17.13;7.32;;;16.90;99.90;;;;;;5052518;28;20017;-46
2022/10/29 09:54:56;;;;;;;12.95;7.05;;;17.00;99.90;;;;;;5052800;28;20033;-49
2022/10/29 09:57:25;;;;;;;24.65;8.02;;;17.00;99.90;;;;;;5052269;28;20029;-47
2022/10/29 09:59:56;;;;;;;16.73;7.10;;;17.10;99.90;;;;;;5060381;28;20051;-51
2022/10/29 10:02:37;;;;;;;25.83;7.45;;;17.10;99.90;;;;;;5071444;28;20037;-51
2022/10/29 10:05:24;;;;;;;14.15;6.63;;;17.30;99.90;;;;;;5072131;28;20032;-51
2022/10/29 10:08:09;;;;;;;18.05;7.45;;;17.30;99.90;;;;;;5072240;28;20115;-48
2022/10/29 10:10:49;;;;;;;17.58;6.57;;;17.60;99.90;;;;;;5071765;28;20021;-49
2022/10/29 10:13:15;;;;;;;17.67;6.93;;;18.00;99.90;;;;;;5072257;28;20025;-51
2022/10/29 10:15:50;;;;;;;10.95;6.90;;;18.60;99.90;;;;;;5070910;28;20439;-48
2022/10/29 10:18:19;;;;;;;20.38;8.65;;;19.20;99.90;;;;;;5072567;28;20059;-46
2022/10/29 10:20:48;;;;;;;17.02;6.30;;;19.70;99.90;;;;;;5071013;28;20032;-52
2022/10/29 10:23:52;;;;;;;28.40;7.88;;;19.80;99.90;;;;;;5072147;28;20024;-50
2022/10/29 10:26:41;;;;;;;19.27;7.18;;;19.80;99.90;;;;;;5059598;28;20037;-48
2022/10/29 10:29:14;;;;;;;19.45;7.93;;;19.80;99.90;;;;;;5079670;28;20020;-48
2022/10/29 10:31:45;;;;;;;18.55;7.65;;;19.80;99.90;;;;;;5092264;28;20020;-52
2022/10/29 10:34:17;;;;;;;19.23;7.57;;;19.70;99.90;;;;;;5092606;28;20511;-49
2022/10/29 10:36:47;;;;;;;21.55;8.95;;;19.60;99.90;;;;;;5088866;28;20036;-50
2022/10/29 10:39:25;;;;;;;15.70;7.00;;;19.60;99.90;;;;;;5051937;28;20489;-46
2022/10/29 10:41:51;;;;;;;15.88;8.30;;;19.40;99.90;;;;;;5052122;28;20033;-48
2022/10/29 10:44:18;;;;;;;15.45;7.65;;;19.40;99.90;;;;;;5067281;28;20043;-49
2022/10/29 10:46:44;;;;;;;21.25;7.53;;;19.30;99.90;;;;;;5071977;28;20111;-48
2022/10/29 10:49:17;;;;;;;18.50;8.10;;;19.30;99.90;;;;;;5071739;28;20047;-46
2022/10/29 10:51:47;;;;;;;32.97;12.43;;;19.30;99.90;;;;;;5071793;28;20029;-49
2022/10/29 10:54:35;;;;;;;58.35;33.35;;;19.20;99.90;;;;;;5071689;28;20021;-48
2022/10/29 10:57:23;;;;;;;20.30;9.68;;;19.10;99.90;;;;;;5070205;28;20395;-47
2022/10/29 11:00:13;;;;;;;24.75;8.98;;;19.00;99.90;;;;;;5071361;28;20058;-47
2022/10/29 11:02:59;;;;;;;19.75;9.65;;;19.00;99.90;;;;;;5071180;28;20028;-47
2022/10/29 11:05:30;;;;;;;20.70;8.85;;;19.00;99.90;;;;;;5071687;28;20017;-49
2022/10/29 11:08:25;;;;;;;19.42;9.70;;;19.00;99.90;;;;;;5070953;28;20052;-48
2022/10/29 11:10:53;;;;;;;17.65;9.07;;;19.10;99.90;;;;;;5071273;28;20441;-48
2022/10/29 11:13:26;;;;;;;16.23;8.25;;;19.10;99.90;;;;;;5070354;28;20035;-46
2022/10/29 11:16:13;;;;;;;21.90;8.93;;;19.20;99.90;;;;;;5071034;28;20029;-52
2022/10/29 11:19:03;;;;;;;23.83;10.00;;;19.30;99.90;;;;;;5069771;28;20532;-51
2022/10/29 11:21:54;;;;;;;17.75;8.30;;;19.30;99.90;;;;;;5071190;28;20040;-51
2022/10/29 11:24:24;;;;;;;17.65;9.18;;;19.40;99.90;;;;;;5071101;28;20036;-48
2022/10/29 11:27:07;;;;;;;24.10;8.70;;;19.40;99.90;;;;;;5071074;28;20078;-48
2022/10/29 11:30:04;;;;;;;16.25;8.73;;;19.50;99.90;;;;;;5071137;28;20495;-47
2022/10/29 11:32:45;;;;;;;26.38;9.30;;;19.60;99.90;;;;;;5066929;28;20446;-47
2022/10/29 11:35:25;;;;;;;23.25;8.48;;;19.70;99.90;;;;;;5069731;28;20500;-48
2022/10/29 11:38:15;;;;;;;18.85;7.68;;;19.70;99.90;;;;;;5071202;28;20012;-47
2022/10/29 11:40:43;;;;;;;14.43;7.68;;;19.80;99.90;;;;;;5071368;28;20016;-50
2022/10/29 11:43:16;;;;;;;17.30;7.97;;;19.80;99.90;;;;;;5070757;28;20033;-48
2022/10/29 11:46:01;;;;;;;19.52;7.50;;;19.80;99.90;;;;;;5071273;28;20028;-47
2022/10/29 11:49:01;;;;;;;22.98;6.35;;;19.80;99.90;;;;;;5069910;28;20031;-50
2022/10/29 11:51:50;;;;;;;16.25;6.65;;;19.80;99.90;;;;;;5070390;28;20043;-51
2022/10/29 11:54:33;;;;;;;20.25;6.47;;;19.70;99.90;;;;;;5071160;28;20016;-49
2022/10/29 11:57:25;;;;;;;21.80;8.13;;;19.60;99.90;;;;;;5070915;28;20025;-49
2022/10/29 12:00:18;;;;;;;18.40;6.80;;;19.50;99.90;;;;;;5051255;28;20416;-50
2022/10/29 12:02:49;;;;;;;14.57;6.55;;;19.30;99.90;;;;;;5071310;28;20035;-45
2022/10/29 12:05:23;;;;;;;17.98;6.80;;;19.20;99.90;;;;;;5071355;28;20032;-49
2022/10/29 12:07:52;;;;;;;11.60;6.45;;;19.10;99.90;;;;;;5070593;28;20507;-46
2022/10/29 12:10:45;;;;;;;25.58;12.40;;;19.10;99.90;;;;;;5071388;28;20033;-51
2022/10/29 12:13:43;;;;;;;20.70;11.85;;;19.00;99.90;;;;;;5070657;28;20506;-49
2022/10/29 12:16:27;;;;;;;20.40;6.28;;;19.00;99.90;;;;;;5070069;28;20507;-48
2022/10/29 12:19:18;;;;;;;19.77;6.32;;;18.90;99.90;;;;;;5069062;28;20059;-52
2022/10/29 12:22:09;;;;;;;14.40;6.85;;;18.90;99.90;;;;;;5069823;28;20075;-54
2022/10/29 12:24:56;;;;;;;17.20;6.35;;;18.90;99.90;;;;;;5071824;28;20082;-50
2022/10/29 12:27:30;;;;;;;15.63;6.60;;;18.90;99.90;;;;;;5074449;28;20036;-48
2022/10/29 12:30:03;;;;;;;14.40;7.05;;;18.90;99.90;;;;;;5074292;28;20025;-49
2022/10/29 12:33:09;;;;;;;14.63;6.32;;;18.90;99.90;;;;;;5074256;28;20035;-50
2022/10/29 12:36:06;;;;;;;20.95;7.10;;;18.90;99.90;;;;;;5074383;28;20031;-53
2022/10/29 12:38:36;;;;;;;17.85;6.97;;;18.90;99.90;;;;;;5074249;28;20029;-50
2022/10/29 12:41:06;;;;;;;19.20;6.65;;;18.90;99.90;;;;;;5074258;28;20029;-50
2022/10/29 12:43:35;;;;;;;13.93;6.60;;;18.90;99.90;;;;;;5074192;28;20028;-46
2022/10/29 12:46:12;;;;;;;10.93;5.40;;;18.90;99.90;;;;;;5074490;28;20480;-51
2022/10/29 12:48:59;;;;;;;15.00;6.80;;;18.90;99.90;;;;;;5073687;28;20032;-51
2022/10/29 12:51:33;;;;;;;10.68;6.72;;;18.90;99.90;;;;;;5073031;28;20031;-47
2022/10/29 12:54:04;;;;;;;16.10;6.90;;;19.00;99.90;;;;;;5072798;28;20040;-49
2022/10/29 12:56:31;;;;;;;24.55;7.28;;;18.90;99.90;;;;;;5072707;28;20023;-49
2022/10/29 12:58:58;;;;;;;19.52;7.00;;;18.80;99.90;;;;;;5074363;28;20086;-49